PWSweather.com
Personal Weather Stations
Station Observations
THRCKWTHR1
Aveley, EssexGB RM154EL

AveleyEssexGB RM154EL

Lat: 51.5000552, Lon: 0.2501753000000235

Elevation: 98.5

Station Type: Oregon Scientific WMR88

www.facebook.com/thurrockweather

High Low Average
Temperature 47.7°F8.7°C 40.5°F4.7°C 44.4°F6.9°C
Dew Point 44.0°F6.7°C 37.1°F2.8°C 41.0°F5.0°C
Winds 16.1 mph 25.9 kmh Calm Calm 5.0 mph WSW8.0 kmh WSW
Wind Gusts 18.0 mph29.0 kmh -- 8.0 mph12.9 kmh
Humidity 96% 81% 88%
Pressure 29.68 in1005.1 mb 29.33 in993.2 mb -
Precipitation 0.00 in0.0 mm - -
Hour Temp Dew Point Humidity Winds Wind Gusts Pressure Precip Precip Rate Daily Precip Total
12:00 AM 40.5°F4.7°C 37.2°F2.9°C 88% 5.2 mph NNW8.4 kmh NNW 6.5 mph10.5 kmh 29.45 in997.3 mb 0.00 in0.0 mm 0.00 in0.0 mm 0.00 in0.0 mm
12:05 AM 40.5°F4.7°C 37.5°F3.1°C 89% 5.2 mph NNW8.4 kmh NNW 6.5 mph10.5 kmh 29.45 in997.3 mb 0.00 in0.0 mm 0.00 in0.0 mm 0.00 in0.0 mm
12:10 AM 40.6°F4.8°C 37.7°F3.2°C 89% 6.5 mph N10.5 kmh N 6.5 mph10.5 kmh 29.45 in997.3 mb 0.00 in0.0 mm 0.00 in0.0 mm 0.00 in0.0 mm
12:15 AM 40.8°F4.9°C 37.5°F3.1°C 88% 6.5 mph N10.5 kmh N 6.8 mph10.9 kmh 29.45 in997.3 mb 0.00 in0.0 mm 0.00 in0.0 mm 0.00 in0.0 mm
12:20 AM 40.8°F4.9°C 37.8°F3.2°C 89% 1.9 mph N3.1 kmh N 6.8 mph10.9 kmh 29.45 in997.3 mb 0.00 in0.0 mm 0.00 in0.0 mm 0.00 in0.0 mm
12:25 AM 41.0°F5.0°C 37.7°F3.2°C 88% 8.5 mph NNW13.7 kmh NNW 8.5 mph13.7 kmh 29.45 in997.3 mb 0.00 in0.0 mm 0.00 in0.0 mm 0.00 in0.0 mm
12:30 AM 41.0°F5.0°C 37.7°F3.2°C 88% 6.5 mph NW10.5 kmh NW 8.5 mph13.7 kmh 29.45 in997.3 mb 0.00 in0.0 mm 0.00 in0.0 mm 0.00 in0.0 mm
12:35 AM 41.2°F5.1°C 37.9°F3.3°C 88% 7.6 mph NW12.2 kmh NW 8.5 mph13.7 kmh 29.45 in997.3 mb 0.00 in0.0 mm 0.00 in0.0 mm 0.00 in0.0 mm
12:40 AM 41.2°F5.1°C 37.9°F3.3°C 88% 5.5 mph NNW8.9 kmh NNW 11.7 mph18.8 kmh 29.41 in995.9 mb 0.00 in0.0 mm 0.00 in0.0 mm 0.00 in0.0 mm
12:45 AM 41.4°F5.2°C 38.1°F3.4°C 88% 3.5 mph NNW5.6 kmh NNW 11.7 mph18.8 kmh 29.41 in995.9 mb 0.00 in0.0 mm 0.00 in0.0 mm 0.00 in0.0 mm
12:50 AM 41.4°F5.2°C 38.1°F3.4°C 88% 3.8 mph NNW6.1 kmh NNW 9.0 mph14.5 kmh 29.41 in995.9 mb 0.00 in0.0 mm 0.00 in0.0 mm 0.00 in0.0 mm
12:55 AM 41.5°F5.3°C 38.3°F3.5°C 88% 3.3 mph N5.3 kmh N 9.0 mph14.5 kmh 29.41 in995.9 mb 0.00 in0.0 mm 0.00 in0.0 mm 0.00 in0.0 mm
01:00 AM 41.5°F5.3°C 38.0°F3.3°C 87% 4.1 mph NNW6.6 kmh NNW 6.8 mph10.9 kmh 29.41 in995.9 mb 0.00 in0.0 mm 0.00 in0.0 mm 0.00 in0.0 mm
01:05 AM 41.5°F5.3°C 38.0°F3.3°C 87% 6.8 mph NW10.9 kmh NW 7.4 mph11.9 kmh 29.41 in995.9 mb 0.00 in0.0 mm 0.00 in0.0 mm 0.00 in0.0 mm
01:10 AM 41.5°F5.3°C 38.0°F3.3°C 87% 6.8 mph N10.9 kmh N 11.5 mph18.5 kmh 29.41 in995.9 mb 0.00 in0.0 mm 0.00 in0.0 mm 0.00 in0.0 mm
01:15 AM 41.4°F5.2°C 37.8°F3.2°C 87% 4.9 mph NNE7.9 kmh NNE 11.5 mph18.5 kmh 29.41 in995.9 mb 0.00 in0.0 mm 0.00 in0.0 mm 0.00 in0.0 mm
01:20 AM 41.4°F5.2°C 37.8°F3.2°C 87% 3.5 mph NE5.6 kmh NE 7.1 mph11.4 kmh 29.41 in995.9 mb 0.00 in0.0 mm 0.00 in0.0 mm 0.00 in0.0 mm
01:25 AM 41.2°F5.1°C 37.6°F3.1°C 87% 7.4 mph NNW11.9 kmh NNW 8.5 mph13.7 kmh 29.39 in995.3 mb 0.00 in0.0 mm 0.00 in0.0 mm 0.00 in0.0 mm
01:30 AM 41.2°F5.1°C 37.6°F3.1°C 87% 4.1 mph NW6.6 kmh NW 8.5 mph13.7 kmh 29.39 in995.3 mb 0.00 in0.0 mm 0.00 in0.0 mm 0.00 in0.0 mm
01:35 AM 41.2°F5.1°C 37.9°F3.3°C 88% 4.9 mph NW7.9 kmh NW 9.3 mph15.0 kmh 29.39 in995.3 mb 0.00 in0.0 mm 0.00 in0.0 mm 0.00 in0.0 mm
01:40 AM 41.2°F5.1°C 37.9°F3.3°C 88% 4.4 mph NW7.1 kmh NW 9.3 mph15.0 kmh 29.39 in995.3 mb 0.00 in0.0 mm 0.00 in0.0 mm 0.00 in0.0 mm
01:45 AM 41.2°F5.1°C 37.9°F3.3°C 88% 6.0 mph NW9.7 kmh NW 7.1 mph11.4 kmh 29.39 in995.3 mb 0.00 in0.0 mm 0.00 in0.0 mm 0.00 in0.0 mm
01:50 AM 41.2°F5.1°C 37.9°F3.3°C 88% 4.9 mph NW7.9 kmh NW 7.4 mph11.9 kmh 29.39 in995.3 mb 0.00 in0.0 mm 0.00 in0.0 mm 0.00 in0.0 mm
01:55 AM 41.2°F5.1°C 37.9°F3.3°C 88% 3.5 mph NNW5.6 kmh NNW 7.9 mph12.7 kmh 29.39 in995.3 mb 0.00 in0.0 mm 0.00 in0.0 mm 0.00 in0.0 mm
02:00 AM 41.2°F5.1°C 37.9°F3.3°C 88% 4.9 mph NW7.9 kmh NW 7.9 mph12.7 kmh 29.39 in995.3 mb 0.00 in0.0 mm 0.00 in0.0 mm 0.00 in0.0 mm
02:05 AM 41.4°F5.2°C 38.1°F3.4°C 88% 7.9 mph NNW12.7 kmh NNW 7.9 mph12.7 kmh 29.39 in995.3 mb 0.00 in0.0 mm 0.00 in0.0 mm 0.00 in0.0 mm
02:10 AM 41.4°F5.2°C 38.1°F3.4°C 88% 2.5 mph N4.0 kmh N 7.9 mph12.7 kmh 29.39 in995.3 mb 0.00 in0.0 mm 0.00 in0.0 mm 0.00 in0.0 mm
02:15 AM 41.5°F5.3°C 38.5°F3.6°C 89% 4.6 mph N7.4 kmh N 7.9 mph12.7 kmh 29.39 in995.3 mb 0.00 in0.0 mm 0.00 in0.0 mm 0.00 in0.0 mm
02:20 AM 41.5°F5.3°C 38.5°F3.6°C 89% 5.7 mph N9.2 kmh N 6.8 mph10.9 kmh 29.39 in995.3 mb 0.00 in0.0 mm 0.00 in0.0 mm 0.00 in0.0 mm
02:25 AM 41.5°F5.3°C 38.5°F3.6°C 89% 6.5 mph NNW10.5 kmh NNW 8.7 mph14.0 kmh 29.39 in995.3 mb 0.00 in0.0 mm 0.00 in0.0 mm 0.00 in0.0 mm
02:30 AM 41.5°F5.3°C 38.5°F3.6°C 89% 5.7 mph N9.2 kmh N 9.3 mph15.0 kmh 29.39 in995.3 mb 0.00 in0.0 mm 0.00 in0.0 mm 0.00 in0.0 mm
02:35 AM 41.5°F5.3°C 38.5°F3.6°C 89% 3.8 mph N6.1 kmh N 9.3 mph15.0 kmh 29.39 in995.3 mb 0.00 in0.0 mm 0.00 in0.0 mm 0.00 in0.0 mm
02:40 AM 41.5°F5.3°C 38.8°F3.8°C 90% 6.5 mph NW10.5 kmh NW 7.6 mph12.2 kmh 29.36 in994.2 mb 0.00 in0.0 mm 0.00 in0.0 mm 0.00 in0.0 mm
02:45 AM 41.5°F5.3°C 38.8°F3.8°C 90% 7.1 mph NNW11.4 kmh NNW 7.6 mph12.2 kmh 29.36 in994.2 mb 0.00 in0.0 mm 0.00 in0.0 mm 0.00 in0.0 mm
02:50 AM 41.5°F5.3°C 38.8°F3.8°C 90% 8.5 mph NNW13.7 kmh NNW 8.5 mph13.7 kmh 29.36 in994.2 mb 0.00 in0.0 mm 0.00 in0.0 mm 0.00 in0.0 mm
02:55 AM 41.5°F5.3°C 38.8°F3.8°C 90% 3.8 mph NNW6.1 kmh NNW 10.6 mph17.1 kmh 29.36 in994.2 mb 0.00 in0.0 mm 0.00 in0.0 mm 0.00 in0.0 mm
03:00 AM 41.5°F5.3°C 39.1°F3.9°C 91% 3.8 mph NNW6.1 kmh NNW 11.7 mph18.8 kmh 29.36 in994.2 mb 0.00 in0.0 mm 0.00 in0.0 mm 0.00 in0.0 mm
03:05 AM 41.5°F5.3°C 39.1°F3.9°C 91% 4.1 mph N6.6 kmh N 11.7 mph18.8 kmh 29.36 in994.2 mb 0.00 in0.0 mm 0.00 in0.0 mm 0.00 in0.0 mm
03:10 AM 41.4°F5.2°C 38.9°F3.8°C 91% 7.6 mph NNW12.2 kmh NNW 9.8 mph15.8 kmh 29.36 in994.2 mb 0.00 in0.0 mm 0.00 in0.0 mm 0.00 in0.0 mm
03:15 AM 41.2°F5.1°C 39.0°F3.9°C 92% 6.8 mph NW10.9 kmh NW 10.9 mph17.5 kmh 29.33 in993.2 mb 0.00 in0.0 mm 0.00 in0.0 mm 0.00 in0.0 mm
03:20 AM 41.2°F5.1°C 39.3°F4.1°C 93% 5.7 mph NNW9.2 kmh NNW 10.9 mph17.5 kmh 29.33 in993.2 mb 0.00 in0.0 mm 0.00 in0.0 mm 0.00 in0.0 mm
03:25 AM 41.2°F5.1°C 39.3°F4.1°C 93% 4.6 mph N7.4 kmh N 7.1 mph11.4 kmh 29.33 in993.2 mb 0.00 in0.0 mm 0.00 in0.0 mm 0.00 in0.0 mm
03:30 AM 41.0°F5.0°C 39.4°F4.1°C 94% 4.6 mph NW7.4 kmh NW 9.8 mph15.8 kmh 29.33 in993.2 mb 0.00 in0.0 mm 0.00 in0.0 mm 0.00 in0.0 mm
03:35 AM 41.0°F5.0°C 39.4°F4.1°C 94% 9.3 mph NNW15.0 kmh NNW 9.8 mph15.8 kmh 29.33 in993.2 mb 0.00 in0.0 mm 0.00 in0.0 mm 0.00 in0.0 mm
03:40 AM 41.0°F5.0°C 39.4°F4.1°C 94% 6.5 mph N10.5 kmh N 9.6 mph15.4 kmh 29.33 in993.2 mb 0.00 in0.0 mm 0.00 in0.0 mm 0.00 in0.0 mm
03:45 AM 41.0°F5.0°C 39.7°F4.3°C 95% 1.9 mph NNW3.1 kmh NNW 9.6 mph15.4 kmh 29.33 in993.2 mb 0.00 in0.0 mm 0.00 in0.0 mm 0.00 in0.0 mm
03:50 AM 41.0°F5.0°C 39.7°F4.3°C 95% Calm Calm 8.7 mph14.0 kmh 29.33 in993.2 mb 0.00 in0.0 mm 0.00 in0.0 mm 0.00 in0.0 mm
03:55 AM 41.0°F5.0°C 39.7°F4.3°C 95% Calm Calm 1.6 mph2.6 kmh 29.33 in993.2 mb 0.00 in0.0 mm 0.00 in0.0 mm 0.00 in0.0 mm
04:00 AM 41.0°F5.0°C 39.7°F4.3°C 95% Calm Calm 1.6 mph2.6 kmh 29.33 in993.2 mb 0.00 in0.0 mm 0.00 in0.0 mm 0.00 in0.0 mm
04:05 AM 41.0°F5.0°C 39.7°F4.3°C 95% Calm Calm -- 29.33 in993.2 mb 0.00 in0.0 mm 0.00 in0.0 mm 0.00 in0.0 mm
04:10 AM 41.0°F5.0°C 39.7°F4.3°C 95% Calm Calm -- 29.33 in993.2 mb 0.00 in0.0 mm 0.00 in0.0 mm 0.00 in0.0 mm
04:15 AM 41.0°F5.0°C 39.7°F4.3°C 95% 5.2 mph NW8.4 kmh NW 10.4 mph16.7 kmh 29.33 in993.2 mb 0.00 in0.0 mm 0.00 in0.0 mm 0.00 in0.0 mm
04:20 AM 41.0°F5.0°C 39.7°F4.3°C 95% 4.9 mph NW7.9 kmh NW 10.4 mph16.7 kmh 29.33 in993.2 mb 0.00 in0.0 mm 0.00 in0.0 mm 0.00 in0.0 mm
04:25 AM 41.0°F5.0°C 39.7°F4.3°C 95% 4.9 mph N7.9 kmh N 9.6 mph15.4 kmh 29.33 in993.2 mb 0.00 in0.0 mm 0.00 in0.0 mm 0.00 in0.0 mm
04:30 AM 41.2°F5.1°C 39.9°F4.4°C 95% 7.4 mph NW11.9 kmh NW 7.4 mph11.9 kmh 29.33 in993.2 mb 0.00 in0.0 mm 0.00 in0.0 mm 0.00 in0.0 mm
04:35 AM 41.2°F5.1°C 39.9°F4.4°C 95% 4.4 mph NW7.1 kmh NW 10.9 mph17.5 kmh 29.33 in993.2 mb 0.00 in0.0 mm 0.00 in0.0 mm 0.00 in0.0 mm
04:40 AM 41.2°F5.1°C 39.9°F4.4°C 95% 10.4 mph NW16.7 kmh NW 10.9 mph17.5 kmh 29.33 in993.2 mb 0.00 in0.0 mm 0.00 in0.0 mm 0.00 in0.0 mm
04:45 AM 41.2°F5.1°C 39.9°F4.4°C 95% 4.1 mph WNW6.6 kmh WNW 10.4 mph16.7 kmh 29.33 in993.2 mb 0.00 in0.0 mm 0.00 in0.0 mm 0.00 in0.0 mm
04:50 AM 41.2°F5.1°C 39.9°F4.4°C 95% 7.1 mph NW11.4 kmh NW 9.8 mph15.8 kmh 29.33 in993.2 mb 0.00 in0.0 mm 0.00 in0.0 mm 0.00 in0.0 mm
04:55 AM 41.2°F5.1°C 39.9°F4.4°C 95% 5.7 mph NW9.2 kmh NW 11.2 mph18.0 kmh 29.33 in993.2 mb 0.00 in0.0 mm 0.00 in0.0 mm 0.00 in0.0 mm
05:00 AM 41.2°F5.1°C 39.9°F4.4°C 95% 7.4 mph NW11.9 kmh NW 11.2 mph18.0 kmh 29.33 in993.2 mb 0.00 in0.0 mm 0.00 in0.0 mm 0.00 in0.0 mm
05:05 AM 41.4°F5.2°C 40.0°F4.4°C 95% 1.1 mph N1.8 kmh N 10.4 mph16.7 kmh 29.33 in993.2 mb 0.00 in0.0 mm 0.00 in0.0 mm 0.00 in0.0 mm
05:10 AM 41.4°F5.2°C 40.0°F4.4°C 95% 7.4 mph N11.9 kmh N 10.4 mph16.7 kmh 29.33 in993.2 mb 0.00 in0.0 mm 0.00 in0.0 mm 0.00 in0.0 mm
05:15 AM 41.4°F5.2°C 40.0°F4.4°C 95% 8.7 mph N14.0 kmh N 9.6 mph15.4 kmh 29.33 in993.2 mb 0.00 in0.0 mm 0.00 in0.0 mm 0.00 in0.0 mm
05:20 AM 41.4°F5.2°C 40.0°F4.4°C 95% 4.1 mph NNW6.6 kmh NNW 8.7 mph14.0 kmh 29.33 in993.2 mb 0.00 in0.0 mm 0.00 in0.0 mm 0.00 in0.0 mm
05:25 AM 41.4°F5.2°C 40.0°F4.4°C 95% 6.0 mph NNW9.7 kmh NNW 12.0 mph19.3 kmh 29.33 in993.2 mb 0.00 in0.0 mm 0.00 in0.0 mm 0.00 in0.0 mm
05:30 AM 41.4°F5.2°C 40.3°F4.6°C 96% 5.2 mph NNW8.4 kmh NNW 12.0 mph19.3 kmh 29.33 in993.2 mb 0.00 in0.0 mm 0.00 in0.0 mm 0.00 in0.0 mm
05:35 AM 41.4°F5.2°C 40.3°F4.6°C 96% 3.8 mph NW6.1 kmh NW 10.6 mph17.1 kmh 29.33 in993.2 mb 0.00 in0.0 mm 0.00 in0.0 mm 0.00 in0.0 mm
05:40 AM 41.4°F5.2°C 40.3°F4.6°C 96% 3.5 mph NW5.6 kmh NW 11.7 mph18.8 kmh 29.33 in993.2 mb 0.00 in0.0 mm 0.00 in0.0 mm 0.00 in0.0 mm
05:45 AM 41.4°F5.2°C 40.3°F4.6°C 96% 4.9 mph WNW7.9 kmh WNW 11.7 mph18.8 kmh 29.33 in993.2 mb 0.00 in0.0 mm 0.00 in0.0 mm 0.00 in0.0 mm
05:50 AM 41.4°F5.2°C 40.3°F4.6°C 96% 4.4 mph NW7.1 kmh NW 7.4 mph11.9 kmh 29.33 in993.2 mb 0.00 in0.0 mm 0.00 in0.0 mm 0.00 in0.0 mm
05:55 AM 41.4°F5.2°C 40.3°F4.6°C 96% 5.7 mph NNW9.2 kmh NNW 7.6 mph12.2 kmh 29.33 in993.2 mb 0.00 in0.0 mm 0.00 in0.0 mm 0.00 in0.0 mm
06:00 AM 41.4°F5.2°C 40.3°F4.6°C 96% 6.0 mph NW9.7 kmh NW 8.7 mph14.0 kmh 29.33 in993.2 mb 0.00 in0.0 mm 0.00 in0.0 mm 0.00 in0.0 mm
06:05 AM 41.4°F5.2°C 40.3°F4.6°C 96% 7.4 mph NW11.9 kmh NW 9.6 mph15.4 kmh 29.33 in993.2 mb 0.00 in0.0 mm 0.00 in0.0 mm 0.00 in0.0 mm
06:10 AM 41.5°F5.3°C 40.5°F4.7°C 96% 4.4 mph NW7.1 kmh NW 9.6 mph15.4 kmh 29.33 in993.2 mb 0.00 in0.0 mm 0.00 in0.0 mm 0.00 in0.0 mm
06:15 AM 41.5°F5.3°C 40.5°F4.7°C 96% 12.8 mph NNW20.6 kmh NNW 12.8 mph20.6 kmh 29.33 in993.2 mb 0.00 in0.0 mm 0.00 in0.0 mm 0.00 in0.0 mm
06:20 AM 41.5°F5.3°C 40.5°F4.7°C 96% 4.4 mph NNW7.1 kmh NNW 12.8 mph20.6 kmh 29.33 in993.2 mb 0.00 in0.0 mm 0.00 in0.0 mm 0.00 in0.0 mm
06:25 AM 41.5°F5.3°C 40.5°F4.7°C 96% 4.1 mph NW6.6 kmh NW 7.9 mph12.7 kmh 29.33 in993.2 mb 0.00 in0.0 mm 0.00 in0.0 mm 0.00 in0.0 mm
06:30 AM 41.5°F5.3°C 40.5°F4.7°C 96% 10.4 mph NW16.7 kmh NW 10.4 mph16.7 kmh 29.33 in993.2 mb 0.00 in0.0 mm 0.00 in0.0 mm 0.00 in0.0 mm
06:35 AM 41.5°F5.3°C 40.5°F4.7°C 96% 10.4 mph NW16.7 kmh NW 10.4 mph16.7 kmh 29.33 in993.2 mb 0.00 in0.0 mm 0.00 in0.0 mm 0.00 in0.0 mm
06:40 AM 41.5°F5.3°C 40.5°F4.7°C 96% 6.8 mph NNW10.9 kmh NNW 10.4 mph16.7 kmh 29.33 in993.2 mb 0.00 in0.0 mm 0.00 in0.0 mm 0.00 in0.0 mm
06:45 AM 41.5°F5.3°C 40.5°F4.7°C 96% 12.8 mph NNW20.6 kmh NNW 12.8 mph20.6 kmh 29.33 in993.2 mb 0.00 in0.0 mm 0.00 in0.0 mm 0.00 in0.0 mm
06:50 AM 41.5°F5.3°C 40.5°F4.7°C 96% 7.6 mph NW12.2 kmh NW 12.8 mph20.6 kmh 29.33 in993.2 mb 0.00 in0.0 mm 0.00 in0.0 mm 0.00 in0.0 mm
06:55 AM 41.5°F5.3°C 40.5°F4.7°C 96% 7.4 mph NW11.9 kmh NW 12.8 mph20.6 kmh 29.33 in993.2 mb 0.00 in0.0 mm 0.00 in0.0 mm 0.00 in0.0 mm
07:00 AM 41.7°F5.4°C 40.7°F4.8°C 96% 7.9 mph NW12.7 kmh NW 12.0 mph19.3 kmh 29.33 in993.2 mb 0.00 in0.0 mm 0.00 in0.0 mm 0.00 in0.0 mm
07:05 AM 41.7°F5.4°C 40.7°F4.8°C 96% 11.7 mph NNW18.8 kmh NNW 11.7 mph18.8 kmh 29.33 in993.2 mb 0.00 in0.0 mm 0.00 in0.0 mm 0.00 in0.0 mm
07:10 AM 41.7°F5.4°C 40.7°F4.8°C 96% 5.2 mph NW8.4 kmh NW 11.7 mph18.8 kmh 29.33 in993.2 mb 0.00 in0.0 mm 0.00 in0.0 mm 0.00 in0.0 mm
07:15 AM 41.7°F5.4°C 40.7°F4.8°C 96% 6.8 mph NW10.9 kmh NW 11.7 mph18.8 kmh 29.33 in993.2 mb 0.00 in0.0 mm 0.00 in0.0 mm 0.00 in0.0 mm
07:20 AM 41.7°F5.4°C 40.7°F4.8°C 96% 7.6 mph NNW12.2 kmh NNW 10.6 mph17.1 kmh 29.33 in993.2 mb 0.00 in0.0 mm 0.00 in0.0 mm 0.00 in0.0 mm
07:25 AM 41.9°F5.5°C 40.8°F4.9°C 96% 4.4 mph N7.1 kmh N 10.6 mph17.1 kmh 29.33 in993.2 mb 0.00 in0.0 mm 0.00 in0.0 mm 0.00 in0.0 mm
07:30 AM 41.9°F5.5°C 40.8°F4.9°C 96% 5.2 mph NNW8.4 kmh NNW 13.4 mph21.6 kmh 29.33 in993.2 mb 0.00 in0.0 mm 0.00 in0.0 mm 0.00 in0.0 mm
07:35 AM 42.1°F5.6°C 41.0°F5.0°C 96% 6.8 mph NW10.9 kmh NW 13.4 mph21.6 kmh 29.33 in993.2 mb 0.00 in0.0 mm 0.00 in0.0 mm 0.00 in0.0 mm
07:40 AM 42.1°F5.6°C 41.0°F5.0°C 96% 9.3 mph NW15.0 kmh NW 12.3 mph19.8 kmh 29.33 in993.2 mb 0.00 in0.0 mm 0.00 in0.0 mm 0.00 in0.0 mm
07:45 AM 42.1°F5.6°C 41.0°F5.0°C 96% 3.5 mph NW5.6 kmh NW 12.3 mph19.8 kmh 29.33 in993.2 mb 0.00 in0.0 mm 0.00 in0.0 mm 0.00 in0.0 mm
07:50 AM 42.3°F5.7°C 41.2°F5.1°C 96% 9.3 mph N15.0 kmh N 12.3 mph19.8 kmh 29.33 in993.2 mb 0.00 in0.0 mm 0.00 in0.0 mm 0.00 in0.0 mm
07:55 AM 42.3°F5.7°C 41.2°F5.1°C 96% 7.4 mph NNW11.9 kmh NNW 12.0 mph19.3 kmh 29.33 in993.2 mb 0.00 in0.0 mm 0.00 in0.0 mm 0.00 in0.0 mm
08:00 AM 42.4°F5.8°C 41.4°F5.2°C 96% 12.3 mph NW19.8 kmh NW 12.3 mph19.8 kmh 29.33 in993.2 mb 0.00 in0.0 mm 0.00 in0.0 mm 0.00 in0.0 mm
08:05 AM 42.4°F5.8°C 41.4°F5.2°C 96% 6.5 mph NW10.5 kmh NW 12.3 mph19.8 kmh 29.33 in993.2 mb 0.00 in0.0 mm 0.00 in0.0 mm 0.00 in0.0 mm
08:10 AM 42.4°F5.8°C 41.4°F5.2°C 96% 2.5 mph NW4.0 kmh NW 13.1 mph21.1 kmh 29.33 in993.2 mb 0.00 in0.0 mm 0.00 in0.0 mm 0.00 in0.0 mm
08:15 AM 42.6°F5.9°C 41.6°F5.3°C 96% 4.6 mph NNW7.4 kmh NNW 13.1 mph21.1 kmh 29.33 in993.2 mb 0.00 in0.0 mm 0.00 in0.0 mm 0.00 in0.0 mm
08:20 AM 42.8°F6.0°C 41.5°F5.3°C 95% 9.0 mph N14.5 kmh N 10.6 mph17.1 kmh 29.33 in993.2 mb 0.00 in0.0 mm 0.00 in0.0 mm 0.00 in0.0 mm
08:25 AM 42.8°F6.0°C 41.5°F5.3°C 95% 13.4 mph NW21.6 kmh NW 14.5 mph23.3 kmh 29.33 in993.2 mb 0.00 in0.0 mm 0.00 in0.0 mm 0.00 in0.0 mm
08:30 AM 42.8°F6.0°C 41.5°F5.3°C 95% 6.8 mph WNW10.9 kmh WNW 15.3 mph24.6 kmh 29.33 in993.2 mb 0.00 in0.0 mm 0.00 in0.0 mm 0.00 in0.0 mm
08:35 AM 43.0°F6.1°C 41.6°F5.3°C 95% 1.4 mph WNW2.3 kmh WNW 15.3 mph24.6 kmh 29.33 in993.2 mb 0.00 in0.0 mm 0.00 in0.0 mm 0.00 in0.0 mm
08:40 AM 43.0°F6.1°C 41.6°F5.3°C 95% 4.1 mph NW6.6 kmh NW 8.5 mph13.7 kmh 29.33 in993.2 mb 0.00 in0.0 mm 0.00 in0.0 mm 0.00 in0.0 mm
08:45 AM 43.2°F6.2°C 41.8°F5.4°C 95% 12.8 mph NNW20.6 kmh NNW 12.8 mph20.6 kmh 29.33 in993.2 mb 0.00 in0.0 mm 0.00 in0.0 mm 0.00 in0.0 mm
08:50 AM 43.2°F6.2°C 41.8°F5.4°C 95% 12.8 mph NW20.6 kmh NW 12.8 mph20.6 kmh 29.33 in993.2 mb 0.00 in0.0 mm 0.00 in0.0 mm 0.00 in0.0 mm
08:55 AM 43.3°F6.3°C 42.0°F5.6°C 95% 5.7 mph NW9.2 kmh NW 13.1 mph21.1 kmh 29.33 in993.2 mb 0.00 in0.0 mm 0.00 in0.0 mm 0.00 in0.0 mm
09:00 AM 43.5°F6.4°C 42.2°F5.7°C 95% 6.5 mph NW10.5 kmh NW 13.1 mph21.1 kmh 29.33 in993.2 mb 0.00 in0.0 mm 0.00 in0.0 mm 0.00 in0.0 mm
09:05 AM 43.5°F6.4°C 42.2°F5.7°C 95% 6.5 mph N10.5 kmh N 12.8 mph20.6 kmh 29.33 in993.2 mb 0.00 in0.0 mm 0.00 in0.0 mm 0.00 in0.0 mm
09:10 AM 43.7°F6.5°C 42.4°F5.8°C 95% 4.4 mph N7.1 kmh N 12.8 mph20.6 kmh 29.33 in993.2 mb 0.00 in0.0 mm 0.00 in0.0 mm 0.00 in0.0 mm
09:15 AM 43.9°F6.6°C 42.5°F5.8°C 95% 7.4 mph NW11.9 kmh NW 12.0 mph19.3 kmh 29.33 in993.2 mb 0.00 in0.0 mm 0.00 in0.0 mm 0.00 in0.0 mm
09:20 AM 43.9°F6.6°C 42.5°F5.8°C 95% 12.0 mph NW19.3 kmh NW 12.3 mph19.8 kmh 29.33 in993.2 mb 0.00 in0.0 mm 0.00 in0.0 mm 0.00 in0.0 mm
09:25 AM 44.1°F6.7°C 42.4°F5.8°C 94% 6.5 mph NW10.5 kmh NW 12.3 mph19.8 kmh 29.33 in993.2 mb 0.00 in0.0 mm 0.00 in0.0 mm 0.00 in0.0 mm
09:30 AM 44.2°F6.8°C 42.6°F5.9°C 94% 3.5 mph NNW5.6 kmh NNW 12.0 mph19.3 kmh 29.33 in993.2 mb 0.00 in0.0 mm 0.00 in0.0 mm 0.00 in0.0 mm
09:35 AM 44.4°F6.9°C 42.8°F6.0°C 94% 10.6 mph NNW17.1 kmh NNW 13.1 mph21.1 kmh 29.33 in993.2 mb 0.00 in0.0 mm 0.00 in0.0 mm 0.00 in0.0 mm
09:40 AM 44.6°F7.0°C 42.7°F5.9°C 93% 9.6 mph NW15.4 kmh NW 13.1 mph21.1 kmh 29.33 in993.2 mb 0.00 in0.0 mm 0.00 in0.0 mm 0.00 in0.0 mm
09:45 AM 44.8°F7.1°C 42.9°F6.1°C 93% 13.1 mph NW21.1 kmh NW 13.1 mph21.1 kmh 29.33 in993.2 mb 0.00 in0.0 mm 0.00 in0.0 mm 0.00 in0.0 mm
09:50 AM 45.0°F7.2°C 43.1°F6.2°C 93% 15.6 mph NW25.1 kmh NW 15.6 mph25.1 kmh 29.33 in993.2 mb 0.00 in0.0 mm 0.00 in0.0 mm 0.00 in0.0 mm
09:55 AM 45.1°F7.3°C 43.2°F6.2°C 93% 7.1 mph NNW11.4 kmh NNW 15.6 mph25.1 kmh 29.33 in993.2 mb 0.00 in0.0 mm 0.00 in0.0 mm 0.00 in0.0 mm
10:00 AM 45.1°F7.3°C 43.0°F6.1°C 92% 15.0 mph NW24.1 kmh NW 16.4 mph26.4 kmh 29.33 in993.2 mb 0.00 in0.0 mm 0.00 in0.0 mm 0.00 in0.0 mm
10:05 AM 45.3°F7.4°C 43.1°F6.2°C 92% 9.8 mph NW15.8 kmh NW 16.4 mph26.4 kmh 29.33 in993.2 mb 0.00 in0.0 mm 0.00 in0.0 mm 0.00 in0.0 mm
10:10 AM 45.5°F7.5°C 43.3°F6.3°C 92% 13.9 mph NW22.4 kmh NW 15.0 mph24.1 kmh 29.33 in993.2 mb 0.00 in0.0 mm 0.00 in0.0 mm 0.00 in0.0 mm
10:15 AM 45.5°F7.5°C 43.3°F6.3°C 92% 14.5 mph NW23.3 kmh NW 14.5 mph23.3 kmh 29.33 in993.2 mb 0.00 in0.0 mm 0.00 in0.0 mm 0.00 in0.0 mm
10:20 AM 45.7°F7.6°C 43.5°F6.4°C 92% 6.8 mph NW10.9 kmh NW 14.5 mph23.3 kmh 29.33 in993.2 mb 0.00 in0.0 mm 0.00 in0.0 mm 0.00 in0.0 mm
10:25 AM 45.7°F7.6°C 43.2°F6.2°C 91% 4.9 mph NW7.9 kmh NW 15.6 mph25.1 kmh 29.33 in993.2 mb 0.00 in0.0 mm 0.00 in0.0 mm 0.00 in0.0 mm
10:30 AM 45.9°F7.7°C 43.4°F6.3°C 91% 6.0 mph NW9.7 kmh NW 15.6 mph25.1 kmh 29.33 in993.2 mb 0.00 in0.0 mm 0.00 in0.0 mm 0.00 in0.0 mm
10:35 AM 45.9°F7.7°C 43.4°F6.3°C 91% 12.0 mph NW19.3 kmh NW 12.6 mph20.3 kmh 29.33 in993.2 mb 0.00 in0.0 mm 0.00 in0.0 mm 0.00 in0.0 mm
10:40 AM 46.0°F7.8°C 43.6°F6.4°C 91% 3.5 mph NW5.6 kmh NW 12.6 mph20.3 kmh 29.33 in993.2 mb 0.00 in0.0 mm 0.00 in0.0 mm 0.00 in0.0 mm
10:45 AM 46.0°F7.8°C 43.6°F6.4°C 91% 5.5 mph NNW8.9 kmh NNW 16.9 mph27.2 kmh 29.33 in993.2 mb 0.00 in0.0 mm 0.00 in0.0 mm 0.00 in0.0 mm
10:50 AM 46.2°F7.9°C 43.4°F6.3°C 90% 10.6 mph NW17.1 kmh NW 16.9 mph27.2 kmh 29.33 in993.2 mb 0.00 in0.0 mm 0.00 in0.0 mm 0.00 in0.0 mm
10:55 AM 46.6°F8.1°C 43.8°F6.6°C 90% 7.6 mph NW12.2 kmh NW 13.1 mph21.1 kmh 29.33 in993.2 mb 0.00 in0.0 mm 0.00 in0.0 mm 0.00 in0.0 mm
11:00 AM 46.8°F8.2°C 43.7°F6.5°C 89% 7.1 mph NW11.4 kmh NW 12.6 mph20.3 kmh 29.33 in993.2 mb 0.00 in0.0 mm 0.00 in0.0 mm 0.00 in0.0 mm
11:05 AM 46.9°F8.3°C 43.9°F6.6°C 89% 13.4 mph NW21.6 kmh NW 16.4 mph26.4 kmh 29.33 in993.2 mb 0.00 in0.0 mm 0.00 in0.0 mm 0.00 in0.0 mm
11:10 AM 47.1°F8.4°C 43.7°F6.5°C 88% 16.1 mph NW25.9 kmh NW 16.4 mph26.4 kmh 29.33 in993.2 mb 0.00 in0.0 mm 0.00 in0.0 mm 0.00 in0.0 mm
11:15 AM 47.1°F8.4°C 43.7°F6.5°C 88% 9.3 mph NW15.0 kmh NW 16.1 mph25.9 kmh 29.33 in993.2 mb 0.00 in0.0 mm 0.00 in0.0 mm 0.00 in0.0 mm
11:20 AM 47.3°F8.5°C 43.6°F6.4°C 87% 14.7 mph NW23.7 kmh NW 17.7 mph28.5 kmh 29.33 in993.2 mb 0.00 in0.0 mm 0.00 in0.0 mm 0.00 in0.0 mm
11:25 AM 47.3°F8.5°C 43.6°F6.4°C 87% 7.6 mph NW12.2 kmh NW 17.7 mph28.5 kmh 29.33 in993.2 mb 0.00 in0.0 mm 0.00 in0.0 mm 0.00 in0.0 mm
11:30 AM 47.5°F8.6°C 43.8°F6.6°C 87% 4.4 mph NNW7.1 kmh NNW 16.1 mph25.9 kmh 29.33 in993.2 mb 0.00 in0.0 mm 0.00 in0.0 mm 0.00 in0.0 mm
11:35 AM 47.7°F8.7°C 44.0°F6.7°C 87% 12.8 mph NNW20.6 kmh NNW 16.1 mph25.9 kmh 29.33 in993.2 mb 0.00 in0.0 mm 0.00 in0.0 mm 0.00 in0.0 mm
11:40 AM 47.7°F8.7°C 44.0°F6.7°C 87% 7.6 mph NW12.2 kmh NW 12.8 mph20.6 kmh 29.33 in993.2 mb 0.00 in0.0 mm 0.00 in0.0 mm 0.00 in0.0 mm
11:45 AM 47.7°F8.7°C 43.7°F6.5°C 86% 10.4 mph NW16.7 kmh NW 13.4 mph21.6 kmh 29.33 in993.2 mb 0.00 in0.0 mm 0.00 in0.0 mm 0.00 in0.0 mm
11:50 AM 47.7°F8.7°C 44.0°F6.7°C 87% 11.7 mph NW18.8 kmh NW 13.4 mph21.6 kmh 29.33 in993.2 mb 0.00 in0.0 mm 0.00 in0.0 mm 0.00 in0.0 mm
11:55 AM 47.7°F8.7°C 43.7°F6.5°C 86% 7.4 mph NNW11.9 kmh NNW 11.7 mph18.8 kmh 29.33 in993.2 mb 0.00 in0.0 mm 0.00 in0.0 mm 0.00 in0.0 mm
12:00 PM 47.7°F8.7°C 43.7°F6.5°C 86% 7.9 mph NW12.7 kmh NW 10.4 mph16.7 kmh 29.36 in994.2 mb 0.00 in0.0 mm 0.00 in0.0 mm 0.00 in0.0 mm
12:05 PM 47.7°F8.7°C 43.7°F6.5°C 86% 10.6 mph NW17.1 kmh NW 18.0 mph29.0 kmh 29.36 in994.2 mb 0.00 in0.0 mm 0.00 in0.0 mm 0.00 in0.0 mm
12:10 PM 47.7°F8.7°C 43.7°F6.5°C 86% 7.4 mph NW11.9 kmh NW 18.0 mph29.0 kmh 29.36 in994.2 mb 0.00 in0.0 mm 0.00 in0.0 mm 0.00 in0.0 mm
12:15 PM 47.7°F8.7°C 43.7°F6.5°C 86% 6.8 mph NW10.9 kmh NW 15.6 mph25.1 kmh 29.36 in994.2 mb 0.00 in0.0 mm 0.00 in0.0 mm 0.00 in0.0 mm
12:20 PM 47.5°F8.6°C 43.2°F6.2°C 85% 7.1 mph NW11.4 kmh NW 9.6 mph15.4 kmh 29.36 in994.2 mb 0.00 in0.0 mm 0.00 in0.0 mm 0.00 in0.0 mm
12:25 PM 47.5°F8.6°C 43.5°F6.4°C 86% 2.5 mph WNW4.0 kmh WNW 9.3 mph15.0 kmh 29.36 in994.2 mb 0.00 in0.0 mm 0.00 in0.0 mm 0.00 in0.0 mm
12:30 PM 47.7°F8.7°C 43.7°F6.5°C 86% 6.8 mph WNW10.9 kmh WNW 9.0 mph14.5 kmh 29.36 in994.2 mb 0.00 in0.0 mm 0.00 in0.0 mm 0.00 in0.0 mm
12:35 PM 47.7°F8.7°C 43.7°F6.5°C 86% 8.5 mph NW13.7 kmh NW 15.8 mph25.4 kmh 29.36 in994.2 mb 0.00 in0.0 mm 0.00 in0.0 mm 0.00 in0.0 mm
12:40 PM 47.7°F8.7°C 43.7°F6.5°C 86% 10.4 mph NNW16.7 kmh NNW 15.8 mph25.4 kmh 29.36 in994.2 mb 0.00 in0.0 mm 0.00 in0.0 mm 0.00 in0.0 mm
12:45 PM 47.7°F8.7°C 43.7°F6.5°C 86% 6.0 mph NNW9.7 kmh NNW 12.3 mph19.8 kmh 29.36 in994.2 mb 0.00 in0.0 mm 0.00 in0.0 mm 0.00 in0.0 mm
12:50 PM 47.7°F8.7°C 43.7°F6.5°C 86% 7.1 mph NW11.4 kmh NW 12.3 mph19.8 kmh 29.36 in994.2 mb 0.00 in0.0 mm 0.00 in0.0 mm 0.00 in0.0 mm
12:55 PM 47.7°F8.7°C 43.7°F6.5°C 86% 2.5 mph NW4.0 kmh NW 8.7 mph14.0 kmh 29.36 in994.2 mb 0.00 in0.0 mm 0.00 in0.0 mm 0.00 in0.0 mm
01:00 PM 47.7°F8.7°C 43.7°F6.5°C 86% 7.4 mph NW11.9 kmh NW 9.3 mph15.0 kmh 29.36 in994.2 mb 0.00 in0.0 mm 0.00 in0.0 mm 0.00 in0.0 mm
01:05 PM 47.7°F8.7°C 43.7°F6.5°C 86% 6.5 mph WNW10.5 kmh WNW 9.3 mph15.0 kmh 29.36 in994.2 mb 0.00 in0.0 mm 0.00 in0.0 mm 0.00 in0.0 mm
01:10 PM 47.5°F8.6°C 43.5°F6.4°C 86% 7.9 mph WNW12.7 kmh WNW 9.3 mph15.0 kmh 29.36 in994.2 mb 0.00 in0.0 mm 0.00 in0.0 mm 0.00 in0.0 mm
01:15 PM 47.5°F8.6°C 43.5°F6.4°C 86% 4.4 mph N7.1 kmh N 9.3 mph15.0 kmh 29.39 in995.3 mb 0.00 in0.0 mm 0.00 in0.0 mm 0.00 in0.0 mm
01:20 PM 47.5°F8.6°C 43.5°F6.4°C 86% 8.7 mph NNW14.0 kmh NNW 9.0 mph14.5 kmh 29.39 in995.3 mb 0.00 in0.0 mm 0.00 in0.0 mm 0.00 in0.0 mm
01:25 PM 47.5°F8.6°C 43.5°F6.4°C 86% 7.1 mph NW11.4 kmh NW 9.0 mph14.5 kmh 29.39 in995.3 mb 0.00 in0.0 mm 0.00 in0.0 mm 0.00 in0.0 mm
01:30 PM 47.5°F8.6°C 43.5°F6.4°C 86% 6.0 mph NW9.7 kmh NW 7.1 mph11.4 kmh 29.39 in995.3 mb 0.00 in0.0 mm 0.00 in0.0 mm 0.00 in0.0 mm
01:35 PM 47.5°F8.6°C 43.5°F6.4°C 86% 6.8 mph WNW10.9 kmh WNW 7.1 mph11.4 kmh 29.39 in995.3 mb 0.00 in0.0 mm 0.00 in0.0 mm 0.00 in0.0 mm
01:40 PM 47.5°F8.6°C 43.5°F6.4°C 86% 3.5 mph NNW5.6 kmh NNW 7.4 mph11.9 kmh 29.39 in995.3 mb 0.00 in0.0 mm 0.00 in0.0 mm 0.00 in0.0 mm
01:45 PM 47.5°F8.6°C 43.5°F6.4°C 86% 9.8 mph NNW15.8 kmh NNW 9.8 mph15.8 kmh 29.39 in995.3 mb 0.00 in0.0 mm 0.00 in0.0 mm 0.00 in0.0 mm
01:50 PM 47.5°F8.6°C 43.5°F6.4°C 86% 1.9 mph NW3.1 kmh NW 9.8 mph15.8 kmh 29.39 in995.3 mb 0.00 in0.0 mm 0.00 in0.0 mm 0.00 in0.0 mm
01:55 PM 47.5°F8.6°C 43.5°F6.4°C 86% 4.1 mph NW6.6 kmh NW 9.0 mph14.5 kmh 29.39 in995.3 mb 0.00 in0.0 mm 0.00 in0.0 mm 0.00 in0.0 mm
02:00 PM 47.5°F8.6°C 43.5°F6.4°C 86% 4.4 mph WNW7.1 kmh WNW 9.0 mph14.5 kmh 29.39 in995.3 mb 0.00 in0.0 mm 0.00 in0.0 mm 0.00 in0.0 mm
02:05 PM 47.5°F8.6°C 43.5°F6.4°C 86% 1.9 mph WSW3.1 kmh WSW 6.5 mph10.5 kmh 29.39 in995.3 mb 0.00 in0.0 mm 0.00 in0.0 mm 0.00 in0.0 mm
02:10 PM 47.5°F8.6°C 43.5°F6.4°C 86% 6.0 mph W9.7 kmh W 6.5 mph10.5 kmh 29.39 in995.3 mb 0.00 in0.0 mm 0.00 in0.0 mm 0.00 in0.0 mm
02:15 PM 47.3°F8.5°C 43.3°F6.3°C 86% 3.5 mph NW5.6 kmh NW 6.0 mph9.7 kmh 29.39 in995.3 mb 0.00 in0.0 mm 0.00 in0.0 mm 0.00 in0.0 mm
02:20 PM 47.3°F8.5°C 43.3°F6.3°C 86% 1.6 mph NNW2.6 kmh NNW 6.0 mph9.7 kmh 29.39 in995.3 mb 0.00 in0.0 mm 0.00 in0.0 mm 0.00 in0.0 mm
02:25 PM 47.3°F8.5°C 43.0°F6.1°C 85% 4.6 mph NNW7.4 kmh NNW 7.4 mph11.9 kmh 29.39 in995.3 mb 0.00 in0.0 mm 0.00 in0.0 mm 0.00 in0.0 mm
02:30 PM 47.3°F8.5°C 43.0°F6.1°C 85% 4.1 mph N6.6 kmh N 7.6 mph12.2 kmh 29.39 in995.3 mb 0.00 in0.0 mm 0.00 in0.0 mm 0.00 in0.0 mm
02:35 PM 47.3°F8.5°C 43.0°F6.1°C 85% 3.5 mph N5.6 kmh N 7.6 mph12.2 kmh 29.39 in995.3 mb 0.00 in0.0 mm 0.00 in0.0 mm 0.00 in0.0 mm
02:40 PM 47.3°F8.5°C 43.0°F6.1°C 85% 4.9 mph NNW7.9 kmh NNW 7.4 mph11.9 kmh 29.39 in995.3 mb 0.00 in0.0 mm 0.00 in0.0 mm 0.00 in0.0 mm
02:45 PM 47.3°F8.5°C 43.0°F6.1°C 85% 1.9 mph NW3.1 kmh NW 4.9 mph7.9 kmh 29.41 in995.9 mb 0.00 in0.0 mm 0.00 in0.0 mm 0.00 in0.0 mm
02:50 PM 47.5°F8.6°C 43.2°F6.2°C 85% Calm Calm 6.8 mph10.9 kmh 29.41 in995.9 mb 0.00 in0.0 mm 0.00 in0.0 mm 0.00 in0.0 mm
02:55 PM 47.5°F8.6°C 43.2°F6.2°C 85% 1.6 mph N2.6 kmh N 6.8 mph10.9 kmh 29.41 in995.9 mb 0.00 in0.0 mm 0.00 in0.0 mm 0.00 in0.0 mm
03:00 PM 47.5°F8.6°C 43.2°F6.2°C 85% 3.3 mph N5.3 kmh N 5.2 mph8.4 kmh 29.41 in995.9 mb 0.00 in0.0 mm 0.00 in0.0 mm 0.00 in0.0 mm
03:05 PM 47.5°F8.6°C 43.2°F6.2°C 85% Calm Calm 7.6 mph12.2 kmh 29.41 in995.9 mb 0.00 in0.0 mm 0.00 in0.0 mm 0.00 in0.0 mm
03:10 PM 47.5°F8.6°C 42.9°F6.1°C 84% 1.6 mph SW2.6 kmh SW 7.6 mph12.2 kmh 29.41 in995.9 mb 0.00 in0.0 mm 0.00 in0.0 mm 0.00 in0.0 mm
03:15 PM 47.5°F8.6°C 42.9°F6.1°C 84% Calm Calm 4.6 mph7.4 kmh 29.41 in995.9 mb 0.00 in0.0 mm 0.00 in0.0 mm 0.00 in0.0 mm
03:20 PM 47.5°F8.6°C 42.9°F6.1°C 84% Calm Calm 3.5 mph5.6 kmh 29.41 in995.9 mb 0.00 in0.0 mm 0.00 in0.0 mm 0.00 in0.0 mm
03:25 PM 47.5°F8.6°C 42.9°F6.1°C 84% 3.8 mph NNW6.1 kmh NNW 7.6 mph12.2 kmh 29.41 in995.9 mb 0.00 in0.0 mm 0.00 in0.0 mm 0.00 in0.0 mm
03:30 PM 47.5°F8.6°C 42.9°F6.1°C 84% 1.9 mph WNW3.1 kmh WNW 11.2 mph18.0 kmh 29.41 in995.9 mb 0.00 in0.0 mm 0.00 in0.0 mm 0.00 in0.0 mm
03:35 PM 47.5°F8.6°C 42.9°F6.1°C 84% 6.0 mph W9.7 kmh W 11.2 mph18.0 kmh 29.41 in995.9 mb 0.00 in0.0 mm 0.00 in0.0 mm 0.00 in0.0 mm
03:40 PM 47.7°F8.7°C 43.1°F6.2°C 84% 2.7 mph NW4.3 kmh NW 6.0 mph9.7 kmh 29.41 in995.9 mb 0.00 in0.0 mm 0.00 in0.0 mm 0.00 in0.0 mm
03:45 PM 47.5°F8.6°C 42.9°F6.1°C 84% 1.9 mph NW3.1 kmh NW 6.0 mph9.7 kmh 29.45 in997.3 mb 0.00 in0.0 mm 0.00 in0.0 mm 0.00 in0.0 mm
03:50 PM 47.5°F8.6°C 42.9°F6.1°C 84% 7.1 mph SW11.4 kmh SW 7.1 mph11.4 kmh 29.45 in997.3 mb 0.00 in0.0 mm 0.00 in0.0 mm 0.00 in0.0 mm
03:55 PM 47.5°F8.6°C 42.9°F6.1°C 84% Calm Calm 7.1 mph11.4 kmh 29.45 in997.3 mb 0.00 in0.0 mm 0.00 in0.0 mm 0.00 in0.0 mm
04:00 PM 47.5°F8.6°C 42.9°F6.1°C 84% 3.5 mph NW5.6 kmh NW 10.4 mph16.7 kmh 29.45 in997.3 mb 0.00 in0.0 mm 0.00 in0.0 mm 0.00 in0.0 mm
04:05 PM 47.5°F8.6°C 42.6°F5.9°C 83% 5.7 mph W9.2 kmh W 10.4 mph16.7 kmh 29.45 in997.3 mb 0.00 in0.0 mm 0.00 in0.0 mm 0.00 in0.0 mm
04:10 PM 47.3°F8.5°C 42.4°F5.8°C 83% Calm Calm 9.3 mph15.0 kmh 29.45 in997.3 mb 0.00 in0.0 mm 0.00 in0.0 mm 0.00 in0.0 mm
04:15 PM 47.3°F8.5°C 42.4°F5.8°C 83% 1.9 mph ENE3.1 kmh ENE 12.3 mph19.8 kmh 29.45 in997.3 mb 0.00 in0.0 mm 0.00 in0.0 mm 0.00 in0.0 mm
04:20 PM 47.3°F8.5°C 42.4°F5.8°C 83% 3.8 mph WNW6.1 kmh WNW 12.3 mph19.8 kmh 29.45 in997.3 mb 0.00 in0.0 mm 0.00 in0.0 mm 0.00 in0.0 mm
04:25 PM 47.3°F8.5°C 42.4°F5.8°C 83% 1.6 mph W2.6 kmh W 9.0 mph14.5 kmh 29.45 in997.3 mb 0.00 in0.0 mm 0.00 in0.0 mm 0.00 in0.0 mm
04:30 PM 47.3°F8.5°C 42.4°F5.8°C 83% 3.8 mph WNW6.1 kmh WNW 7.9 mph12.7 kmh 29.45 in997.3 mb 0.00 in0.0 mm 0.00 in0.0 mm 0.00 in0.0 mm
04:35 PM 47.3°F8.5°C 42.4°F5.8°C 83% 4.4 mph NW7.1 kmh NW 4.4 mph7.1 kmh 29.45 in997.3 mb 0.00 in0.0 mm 0.00 in0.0 mm 0.00 in0.0 mm
04:40 PM 47.3°F8.5°C 42.4°F5.8°C 83% 3.5 mph WNW5.6 kmh WNW 5.7 mph9.2 kmh 29.45 in997.3 mb 0.00 in0.0 mm 0.00 in0.0 mm 0.00 in0.0 mm
04:45 PM 47.3°F8.5°C 42.4°F5.8°C 83% Calm Calm 5.7 mph9.2 kmh 29.47 in998.0 mb 0.00 in0.0 mm 0.00 in0.0 mm 0.00 in0.0 mm
04:50 PM 47.3°F8.5°C 42.4°F5.8°C 83% 6.8 mph WNW10.9 kmh WNW 6.8 mph10.9 kmh 29.47 in998.0 mb 0.00 in0.0 mm 0.00 in0.0 mm 0.00 in0.0 mm
04:55 PM 47.3°F8.5°C 42.4°F5.8°C 83% 1.4 mph WNW2.3 kmh WNW 9.6 mph15.4 kmh 29.47 in998.0 mb 0.00 in0.0 mm 0.00 in0.0 mm 0.00 in0.0 mm
05:00 PM 47.3°F8.5°C 42.4°F5.8°C 83% 4.6 mph SSW7.4 kmh SSW 9.6 mph15.4 kmh 29.47 in998.0 mb 0.00 in0.0 mm 0.00 in0.0 mm 0.00 in0.0 mm
05:05 PM 47.1°F8.4°C 42.2°F5.7°C 83% 6.5 mph SW10.5 kmh SW 6.5 mph10.5 kmh 29.47 in998.0 mb 0.00 in0.0 mm 0.00 in0.0 mm 0.00 in0.0 mm
05:10 PM 47.1°F8.4°C 42.2°F5.7°C 83% 1.4 mph WNW2.3 kmh WNW 7.4 mph11.9 kmh 29.47 in998.0 mb 0.00 in0.0 mm 0.00 in0.0 mm 0.00 in0.0 mm
05:15 PM 47.1°F8.4°C 42.2°F5.7°C 83% 1.1 mph N1.8 kmh N 7.4 mph11.9 kmh 29.47 in998.0 mb 0.00 in0.0 mm 0.00 in0.0 mm 0.00 in0.0 mm
05:20 PM 46.9°F8.3°C 42.0°F5.6°C 83% 5.2 mph NE8.4 kmh NE 5.2 mph8.4 kmh 29.47 in998.0 mb 0.00 in0.0 mm 0.00 in0.0 mm 0.00 in0.0 mm
05:25 PM 46.9°F8.3°C 42.0°F5.6°C 83% 5.2 mph W8.4 kmh W 5.2 mph8.4 kmh 29.47 in998.0 mb 0.00 in0.0 mm 0.00 in0.0 mm 0.00 in0.0 mm
05:30 PM 46.9°F8.3°C 42.0°F5.6°C 83% 2.5 mph NW4.0 kmh NW 5.2 mph8.4 kmh 29.50 in999.0 mb 0.00 in0.0 mm 0.00 in0.0 mm 0.00 in0.0 mm
05:35 PM 46.9°F8.3°C 42.0°F5.6°C 83% 3.8 mph NW6.1 kmh NW 5.2 mph8.4 kmh 29.50 in999.0 mb 0.00 in0.0 mm 0.00 in0.0 mm 0.00 in0.0 mm
05:40 PM 46.8°F8.2°C 41.9°F5.5°C 83% 2.7 mph WSW4.3 kmh WSW 3.8 mph6.1 kmh 29.50 in999.0 mb 0.00 in0.0 mm 0.00 in0.0 mm 0.00 in0.0 mm
05:45 PM 46.8°F8.2°C 41.9°F5.5°C 83% 1.1 mph W1.8 kmh W 4.9 mph7.9 kmh 29.50 in999.0 mb 0.00 in0.0 mm 0.00 in0.0 mm 0.00 in0.0 mm
05:50 PM 46.8°F8.2°C 41.9°F5.5°C 83% Calm Calm 4.9 mph7.9 kmh 29.50 in999.0 mb 0.00 in0.0 mm 0.00 in0.0 mm 0.00 in0.0 mm
05:55 PM 46.8°F8.2°C 41.9°F5.5°C 83% 3.8 mph SW6.1 kmh SW 4.9 mph7.9 kmh 29.50 in999.0 mb 0.00 in0.0 mm 0.00 in0.0 mm 0.00 in0.0 mm
06:00 PM 46.8°F8.2°C 41.9°F5.5°C 83% 4.6 mph NW7.4 kmh NW 4.9 mph7.9 kmh 29.50 in999.0 mb 0.00 in0.0 mm 0.00 in0.0 mm 0.00 in0.0 mm
06:05 PM 46.8°F8.2°C 41.6°F5.3°C 82% Calm Calm 4.6 mph7.4 kmh 29.50 in999.0 mb 0.00 in0.0 mm 0.00 in0.0 mm 0.00 in0.0 mm
06:10 PM 46.8°F8.2°C 41.9°F5.5°C 83% 2.5 mph WSW4.0 kmh WSW 4.9 mph7.9 kmh 29.50 in999.0 mb 0.00 in0.0 mm 0.00 in0.0 mm 0.00 in0.0 mm
06:15 PM 46.8°F8.2°C 41.6°F5.3°C 82% 3.3 mph SW5.3 kmh SW 4.9 mph7.9 kmh 29.53 in1000.0 mb 0.00 in0.0 mm 0.00 in0.0 mm 0.00 in0.0 mm
06:20 PM 46.6°F8.1°C 41.7°F5.4°C 83% 4.4 mph WSW7.1 kmh WSW 4.4 mph7.1 kmh 29.53 in1000.0 mb 0.00 in0.0 mm 0.00 in0.0 mm 0.00 in0.0 mm
06:25 PM 46.6°F8.1°C 41.7°F5.4°C 83% 1.1 mph WSW1.8 kmh WSW 5.2 mph8.4 kmh 29.53 in1000.0 mb 0.00 in0.0 mm 0.00 in0.0 mm 0.00 in0.0 mm
06:30 PM 46.6°F8.1°C 41.4°F5.2°C 82% 3.5 mph WNW5.6 kmh WNW 5.7 mph9.2 kmh 29.53 in1000.0 mb 0.00 in0.0 mm 0.00 in0.0 mm 0.00 in0.0 mm
06:35 PM 46.6°F8.1°C 41.4°F5.2°C 82% Calm Calm 5.7 mph9.2 kmh 29.53 in1000.0 mb 0.00 in0.0 mm 0.00 in0.0 mm 0.00 in0.0 mm
06:40 PM 46.6°F8.1°C 41.4°F5.2°C 82% 3.3 mph WSW5.3 kmh WSW 4.9 mph7.9 kmh 29.53 in1000.0 mb 0.00 in0.0 mm 0.00 in0.0 mm 0.00 in0.0 mm
06:45 PM 46.6°F8.1°C 41.4°F5.2°C 82% 5.2 mph N8.4 kmh N 5.2 mph8.4 kmh 29.53 in1000.0 mb 0.00 in0.0 mm 0.00 in0.0 mm 0.00 in0.0 mm
06:50 PM 46.6°F8.1°C 41.4°F5.2°C 82% 1.6 mph NNW2.6 kmh NNW 6.8 mph10.9 kmh 29.53 in1000.0 mb 0.00 in0.0 mm 0.00 in0.0 mm 0.00 in0.0 mm
06:55 PM 46.6°F8.1°C 41.4°F5.2°C 82% 4.9 mph SW7.9 kmh SW 6.8 mph10.9 kmh 29.53 in1000.0 mb 0.00 in0.0 mm 0.00 in0.0 mm 0.00 in0.0 mm
07:00 PM 46.4°F8.0°C 41.2°F5.1°C 82% Calm Calm 4.9 mph7.9 kmh 29.53 in1000.0 mb 0.00 in0.0 mm 0.00 in0.0 mm 0.00 in0.0 mm
07:05 PM 46.4°F8.0°C 41.2°F5.1°C 82% 6.0 mph NW9.7 kmh NW 6.0 mph9.7 kmh 29.53 in1000.0 mb 0.00 in0.0 mm 0.00 in0.0 mm 0.00 in0.0 mm
07:10 PM 46.4°F8.0°C 41.2°F5.1°C 82% 3.3 mph WSW5.3 kmh WSW 6.0 mph9.7 kmh 29.53 in1000.0 mb 0.00 in0.0 mm 0.00 in0.0 mm 0.00 in0.0 mm
07:15 PM 46.4°F8.0°C 41.2°F5.1°C 82% 3.8 mph WSW6.1 kmh WSW 6.0 mph9.7 kmh 29.53 in1000.0 mb 0.00 in0.0 mm 0.00 in0.0 mm 0.00 in0.0 mm
07:20 PM 46.4°F8.0°C 41.2°F5.1°C 82% 3.5 mph W5.6 kmh W 3.8 mph6.1 kmh 29.53 in1000.0 mb 0.00 in0.0 mm 0.00 in0.0 mm 0.00 in0.0 mm
07:25 PM 46.4°F8.0°C 40.9°F4.9°C 81% Calm Calm 3.8 mph6.1 kmh 29.53 in1000.0 mb 0.00 in0.0 mm 0.00 in0.0 mm 0.00 in0.0 mm
07:30 PM 46.4°F8.0°C 41.2°F5.1°C 82% Calm Calm -- 29.56 in1001.0 mb 0.00 in0.0 mm 0.00 in0.0 mm 0.00 in0.0 mm
07:35 PM 46.4°F8.0°C 41.2°F5.1°C 82% 2.5 mph W4.0 kmh W 2.5 mph4.0 kmh 29.56 in1001.0 mb 0.00 in0.0 mm 0.00 in0.0 mm 0.00 in0.0 mm
07:40 PM 46.4°F8.0°C 41.2°F5.1°C 82% 4.6 mph WNW7.4 kmh WNW 4.6 mph7.4 kmh 29.56 in1001.0 mb 0.00 in0.0 mm 0.00 in0.0 mm 0.00 in0.0 mm
07:45 PM 46.4°F8.0°C 41.2°F5.1°C 82% 1.6 mph W2.6 kmh W 4.6 mph7.4 kmh 29.56 in1001.0 mb 0.00 in0.0 mm 0.00 in0.0 mm 0.00 in0.0 mm
07:50 PM 46.4°F8.0°C 41.2°F5.1°C 82% Calm Calm 4.6 mph7.4 kmh 29.56 in1001.0 mb 0.00 in0.0 mm 0.00 in0.0 mm 0.00 in0.0 mm
07:55 PM 46.2°F7.9°C 41.0°F5.0°C 82% 1.6 mph SW2.6 kmh SW 3.3 mph5.3 kmh 29.56 in1001.0 mb 0.00 in0.0 mm 0.00 in0.0 mm 0.00 in0.0 mm
08:00 PM 46.2°F7.9°C 41.0°F5.0°C 82% 3.3 mph NNW5.3 kmh NNW 4.9 mph7.9 kmh 29.56 in1001.0 mb 0.00 in0.0 mm 0.00 in0.0 mm 0.00 in0.0 mm
08:05 PM 46.2°F7.9°C 41.0°F5.0°C 82% 1.1 mph N1.8 kmh N 4.9 mph7.9 kmh 29.56 in1001.0 mb 0.00 in0.0 mm 0.00 in0.0 mm 0.00 in0.0 mm
08:10 PM 46.2°F7.9°C 41.0°F5.0°C 82% 2.5 mph SSW4.0 kmh SSW 4.9 mph7.9 kmh 29.56 in1001.0 mb 0.00 in0.0 mm 0.00 in0.0 mm 0.00 in0.0 mm
08:15 PM 46.2°F7.9°C 41.0°F5.0°C 82% Calm Calm 4.4 mph7.1 kmh 29.56 in1001.0 mb 0.00 in0.0 mm 0.00 in0.0 mm 0.00 in0.0 mm
08:20 PM 46.2°F7.9°C 41.0°F5.0°C 82% 2.5 mph SSE4.0 kmh SSE 3.8 mph6.1 kmh 29.56 in1001.0 mb 0.00 in0.0 mm 0.00 in0.0 mm 0.00 in0.0 mm
08:25 PM 46.0°F7.8°C 40.9°F4.9°C 82% 2.5 mph S4.0 kmh S 3.8 mph6.1 kmh 29.56 in1001.0 mb 0.00 in0.0 mm 0.00 in0.0 mm 0.00 in0.0 mm
08:30 PM 46.0°F7.8°C 40.9°F4.9°C 82% 3.5 mph SSW5.6 kmh SSW 4.4 mph7.1 kmh 29.56 in1001.0 mb 0.00 in0.0 mm 0.00 in0.0 mm 0.00 in0.0 mm
08:35 PM 46.0°F7.8°C 40.9°F4.9°C 82% Calm Calm 4.4 mph7.1 kmh 29.56 in1001.0 mb 0.00 in0.0 mm 0.00 in0.0 mm 0.00 in0.0 mm
08:40 PM 46.0°F7.8°C 40.9°F4.9°C 82% Calm Calm 4.1 mph6.6 kmh 29.56 in1001.0 mb 0.00 in0.0 mm 0.00 in0.0 mm 0.00 in0.0 mm
08:45 PM 46.0°F7.8°C 40.9°F4.9°C 82% 1.1 mph S1.8 kmh S 3.8 mph6.1 kmh 29.59 in1002.0 mb 0.00 in0.0 mm 0.00 in0.0 mm 0.00 in0.0 mm
08:50 PM 46.0°F7.8°C 40.9°F4.9°C 82% 1.4 mph S2.3 kmh S 4.6 mph7.4 kmh 29.59 in1002.0 mb 0.00 in0.0 mm 0.00 in0.0 mm 0.00 in0.0 mm
08:55 PM 45.9°F7.7°C 40.4°F4.7°C 81% 1.1 mph SSW1.8 kmh SSW 4.6 mph7.4 kmh 29.59 in1002.0 mb 0.00 in0.0 mm 0.00 in0.0 mm 0.00 in0.0 mm
09:00 PM 45.9°F7.7°C 40.7°F4.8°C 82% Calm Calm 5.2 mph8.4 kmh 29.59 in1002.0 mb 0.00 in0.0 mm 0.00 in0.0 mm 0.00 in0.0 mm
09:05 PM 45.9°F7.7°C 40.7°F4.8°C 82% 4.9 mph SW7.9 kmh SW 5.2 mph8.4 kmh 29.59 in1002.0 mb 0.00 in0.0 mm 0.00 in0.0 mm 0.00 in0.0 mm
09:10 PM 45.7°F7.6°C 40.5°F4.7°C 82% 3.0 mph WSW4.8 kmh WSW 5.7 mph9.2 kmh 29.59 in1002.0 mb 0.00 in0.0 mm 0.00 in0.0 mm 0.00 in0.0 mm
09:15 PM 45.5°F7.5°C 40.3°F4.6°C 82% 2.5 mph WSW4.0 kmh WSW 5.7 mph9.2 kmh 29.59 in1002.0 mb 0.00 in0.0 mm 0.00 in0.0 mm 0.00 in0.0 mm
09:20 PM 45.5°F7.5°C 40.3°F4.6°C 82% Calm Calm 6.5 mph10.5 kmh 29.59 in1002.0 mb 0.00 in0.0 mm 0.00 in0.0 mm 0.00 in0.0 mm
09:25 PM 45.3°F7.4°C 39.8°F4.3°C 81% 3.5 mph NNE5.6 kmh NNE 6.5 mph10.5 kmh 29.59 in1002.0 mb 0.00 in0.0 mm 0.00 in0.0 mm 0.00 in0.0 mm
09:30 PM 45.1°F7.3°C 39.7°F4.3°C 81% 3.5 mph SSW5.6 kmh SSW 3.8 mph6.1 kmh 29.62 in1003.0 mb 0.00 in0.0 mm 0.00 in0.0 mm 0.00 in0.0 mm
09:35 PM 45.1°F7.3°C 39.7°F4.3°C 81% 1.9 mph WSW3.1 kmh WSW 4.4 mph7.1 kmh 29.62 in1003.0 mb 0.00 in0.0 mm 0.00 in0.0 mm 0.00 in0.0 mm
09:40 PM 44.8°F7.1°C 39.3°F4.1°C 81% Calm Calm 4.4 mph7.1 kmh 29.62 in1003.0 mb 0.00 in0.0 mm 0.00 in0.0 mm 0.00 in0.0 mm
09:45 PM 44.4°F6.9°C 39.3°F4.1°C 82% Calm Calm 1.9 mph3.1 kmh 29.62 in1003.0 mb 0.00 in0.0 mm 0.00 in0.0 mm 0.00 in0.0 mm
09:50 PM 44.2°F6.8°C 39.1°F3.9°C 82% Calm Calm 2.5 mph4.0 kmh 29.62 in1003.0 mb 0.00 in0.0 mm 0.00 in0.0 mm 0.00 in0.0 mm
09:55 PM 44.1°F6.7°C 38.9°F3.8°C 82% 2.7 mph SSE4.3 kmh SSE 2.7 mph4.3 kmh 29.62 in1003.0 mb 0.00 in0.0 mm 0.00 in0.0 mm 0.00 in0.0 mm
10:00 PM 43.7°F6.5°C 38.6°F3.7°C 82% 1.4 mph S2.3 kmh S 2.7 mph4.3 kmh 29.62 in1003.0 mb 0.00 in0.0 mm 0.00 in0.0 mm 0.00 in0.0 mm
10:05 PM 43.5°F6.4°C 38.7°F3.7°C 83% Calm Calm 5.2 mph8.4 kmh 29.62 in1003.0 mb 0.00 in0.0 mm 0.00 in0.0 mm 0.00 in0.0 mm
10:10 PM 43.5°F6.4°C 38.7°F3.7°C 83% Calm Calm 5.2 mph8.4 kmh 29.62 in1003.0 mb 0.00 in0.0 mm 0.00 in0.0 mm 0.00 in0.0 mm
10:15 PM 43.3°F6.3°C 38.5°F3.6°C 83% Calm Calm 3.0 mph4.8 kmh 29.65 in1004.1 mb 0.00 in0.0 mm 0.00 in0.0 mm 0.00 in0.0 mm
10:20 PM 43.5°F6.4°C 38.7°F3.7°C 83% Calm Calm 1.6 mph2.6 kmh 29.65 in1004.1 mb 0.00 in0.0 mm 0.00 in0.0 mm 0.00 in0.0 mm
10:25 PM 43.5°F6.4°C 39.0°F3.9°C 84% Calm Calm 3.5 mph5.6 kmh 29.65 in1004.1 mb 0.00 in0.0 mm 0.00 in0.0 mm 0.00 in0.0 mm
10:30 PM 43.7°F6.5°C 39.2°F4.0°C 84% Calm Calm 3.5 mph5.6 kmh 29.65 in1004.1 mb 0.00 in0.0 mm 0.00 in0.0 mm 0.00 in0.0 mm
10:35 PM 43.7°F6.5°C 38.9°F3.8°C 83% Calm Calm 3.3 mph5.3 kmh 29.65 in1004.1 mb 0.00 in0.0 mm 0.00 in0.0 mm 0.00 in0.0 mm
10:40 PM 43.7°F6.5°C 38.9°F3.8°C 83% Calm Calm 3.5 mph5.6 kmh 29.65 in1004.1 mb 0.00 in0.0 mm 0.00 in0.0 mm 0.00 in0.0 mm
10:45 PM 43.7°F6.5°C 39.2°F4.0°C 84% Calm Calm 3.5 mph5.6 kmh 29.65 in1004.1 mb 0.00 in0.0 mm 0.00 in0.0 mm 0.00 in0.0 mm
10:50 PM 43.7°F6.5°C 39.2°F4.0°C 84% Calm Calm -- 29.65 in1004.1 mb 0.00 in0.0 mm 0.00 in0.0 mm 0.00 in0.0 mm
10:55 PM 43.7°F6.5°C 39.2°F4.0°C 84% Calm Calm -- 29.65 in1004.1 mb 0.00 in0.0 mm 0.00 in0.0 mm 0.00 in0.0 mm
11:00 PM 43.7°F6.5°C 39.2°F4.0°C 84% Calm Calm -- 29.65 in1004.1 mb 0.00 in0.0 mm 0.00 in0.0 mm 0.00 in0.0 mm
11:05 PM 43.5°F6.4°C 39.0°F3.9°C 84% Calm Calm -- 29.65 in1004.1 mb 0.00 in0.0 mm 0.00 in0.0 mm 0.00 in0.0 mm
11:10 PM 43.5°F6.4°C 39.0°F3.9°C 84% Calm Calm -- 29.65 in1004.1 mb 0.00 in0.0 mm 0.00 in0.0 mm 0.00 in0.0 mm
11:15 PM 43.5°F6.4°C 39.0°F3.9°C 84% Calm Calm -- 29.65 in1004.1 mb 0.00 in0.0 mm 0.00 in0.0 mm 0.00 in0.0 mm
11:20 PM 43.3°F6.3°C 38.8°F3.8°C 84% Calm Calm -- 29.65 in1004.1 mb 0.00 in0.0 mm 0.00 in0.0 mm 0.00 in0.0 mm
11:25 PM 43.0°F6.1°C 38.5°F3.6°C 84% Calm Calm -- 29.65 in1004.1 mb 0.00 in0.0 mm 0.00 in0.0 mm 0.00 in0.0 mm
11:30 PM 42.8°F6.0°C 38.3°F3.5°C 84% Calm Calm -- 29.68 in1005.1 mb 0.00 in0.0 mm 0.00 in0.0 mm 0.00 in0.0 mm
11:35 PM 42.6°F5.9°C 38.1°F3.4°C 84% Calm Calm -- 29.68 in1005.1 mb 0.00 in0.0 mm 0.00 in0.0 mm 0.00 in0.0 mm
11:40 PM 42.4°F5.8°C 37.9°F3.3°C 84% Calm Calm -- 29.68 in1005.1 mb 0.00 in0.0 mm 0.00 in0.0 mm 0.00 in0.0 mm
11:45 PM 42.3°F5.7°C 37.8°F3.2°C 84% Calm Calm -- 29.68 in1005.1 mb 0.00 in0.0 mm 0.00 in0.0 mm 0.00 in0.0 mm
11:50 PM 41.9°F5.5°C 37.4°F3.0°C 84% Calm Calm -- 29.68 in1005.1 mb 0.00 in0.0 mm 0.00 in0.0 mm 0.00 in0.0 mm
11:55 PM 41.5°F5.3°C 37.1°F2.8°C 84% Calm Calm -- 29.68 in1005.1 mb 0.00 in0.0 mm 0.00 in0.0 mm 0.00 in0.0 mm